Time;durP1;ratioP1;P1;durP2;ratioP2;P2;SDS_P1;SDS_P2;PMS_P1;PMS_P2;Temp;Humidity;BMP_temperature;BMP_pressure;BME280_temperature;BME280_humidity;BME280_pressure;Samples;Min_cycle;Max_cycle;Signal;HPM_P1;HPM_P2
2022/09/23 00:00:47;;;;;;;2.70;1.60;;;4.00;99.90;3.80;101141.00;;;;4983955;28;109172;-62
2022/09/23 00:03:15;;;;;;;2.97;2.43;;;4.00;99.90;3.70;101138.00;;;;4982424;28;92651;-63
2022/09/23 00:05:41;;;;;;;2.47;2.27;;;4.00;99.90;3.70;101131.00;;;;4986877;28;92472;-62
2022/09/23 00:08:11;;;;;;;2.07;1.70;;;4.00;99.90;3.70;101133.00;;;;4985005;28;93289;-63
2022/09/23 00:10:38;;;;;;;3.53;2.23;;;4.00;99.90;3.70;101143.00;;;;4981679;28;91708;-63
2022/09/23 00:13:05;;;;;;;2.13;1.57;;;3.60;99.90;3.70;101133.00;;;;4981667;28;107797;-63
2022/09/23 00:15:37;;;;;;;2.80;2.33;;;3.90;99.90;3.60;101127.00;;;;4978849;28;93035;-63
2022/09/23 00:18:03;;;;;;;2.00;1.80;;;3.90;99.90;3.60;101123.00;;;;4985676;28;93560;-63
2022/09/23 00:20:28;;;;;;;3.43;3.00;;;3.80;99.90;3.60;101124.00;;;;4985151;28;107893;-63
2022/09/23 00:22:56;;;;;;;3.13;2.80;;;3.80;99.90;3.60;101121.00;;;;4987954;28;109077;-62
2022/09/23 00:25:22;;;;;;;4.70;3.07;;;3.70;99.90;3.50;101117.00;;;;4987622;28;93619;-63
2022/09/23 00:27:47;;;;;;;4.13;2.73;;;3.80;99.90;3.50;101113.00;;;;4986114;28;122580;-63
2022/09/23 00:30:13;;;;;;;2.43;1.97;;;4.30;99.90;3.50;101126.00;;;;4984419;28;108075;-63
2022/09/23 00:32:39;;;;;;;2.67;2.47;;;3.70;99.90;3.50;101121.00;;;;4979590;28;107784;-62
2022/09/23 00:35:05;;;;;;;2.00;1.90;;;3.70;99.90;3.50;101113.00;;;;4981636;28;92123;-63
2022/09/23 00:37:31;;;;;;;4.30;2.57;;;3.70;99.90;3.50;101118.00;;;;4983088;28;111345;-63
2022/09/23 00:39:59;;;;;;;3.03;1.87;;;3.70;99.90;3.40;101112.00;;;;4988233;28;109703;-63
2022/09/23 00:42:25;;;;;;;1.80;1.70;;;3.70;99.90;3.40;101122.00;;;;4988995;28;93043;-63
2022/09/23 00:44:57;;;;;;;1.60;1.50;;;3.60;99.90;3.40;101118.00;;;;4988621;28;93306;-63
2022/09/23 00:47:31;;;;;;;2.90;2.23;;;3.60;99.90;3.30;101116.00;;;;4985688;28;92353;-63
2022/09/23 00:50:11;;;;;;;2.20;2.00;;;3.60;99.90;3.30;101117.00;;;;4987947;28;92766;-63
2022/09/23 00:52:38;;;;;;;3.20;1.93;;;4.10;99.90;3.30;101112.00;;;;4973296;28;99766;-63
2022/09/23 00:55:10;;;;;;;6.83;1.87;;;3.60;99.90;3.30;101107.00;;;;4970727;28;121495;-63
2022/09/23 00:57:39;;;;;;;4.83;2.30;;;3.60;99.90;3.30;101106.00;;;;4981897;28;114740;-63
2022/09/23 01:00:07;;;;;;;2.20;2.07;;;3.60;99.90;3.30;101109.00;;;;4974960;28;91727;-63
2022/09/23 01:02:33;;;;;;;2.17;1.97;;;3.50;99.90;3.20;101101.00;;;;4988058;28;92565;-63
2022/09/23 01:05:01;;;;;;;3.10;2.23;;;3.50;99.90;3.20;101118.00;;;;4986648;28;93744;-63
2022/09/23 01:07:26;;;;;;;3.50;2.00;;;3.50;99.90;3.20;101113.00;;;;4984527;28;95762;-63
2022/09/23 01:09:52;;;;;;;3.20;2.27;;;3.50;99.90;3.20;101105.00;;;;4988305;28;108834;-63
2022/09/23 01:12:57;;;;;;;2.13;1.93;;;3.40;99.90;3.10;101093.00;;;;4990080;28;92030;-63
2022/09/23 01:15:47;;;;;;;1.40;1.30;;;3.50;99.90;3.10;101088.00;;;;4971247;28;94125;-63
2022/09/23 01:18:22;;;;;;;2.67;2.23;;;3.40;99.90;3.10;101087.00;;;;4967278;28;106087;-63
2022/09/23 01:20:58;;;;;;;4.23;2.50;;;3.40;99.90;3.00;101088.00;;;;4982453;28;92695;-63
2022/09/23 01:23:40;;;;;;;2.33;2.00;;;3.30;99.90;3.00;101090.00;;;;4991068;28;92216;-63
2022/09/23 01:26:26;;;;;;;2.50;2.30;;;3.30;99.90;3.00;101084.00;;;;4988080;28;93149;-63
2022/09/23 01:29:29;;;;;;;3.40;1.80;;;3.20;99.90;2.90;101077.00;;;;4969275;28;112801;-63
2022/09/23 01:32:01;;;;;;;2.27;1.47;;;3.20;99.90;3.00;101080.00;;;;4981465;28;92763;-63
2022/09/23 01:35:16;;;;;;;2.03;1.80;;;3.20;99.90;2.90;101076.00;;;;4981233;28;93498;-63
2022/09/23 01:37:52;;;;;;;1.87;1.70;;;3.20;99.90;2.90;101075.00;;;;4972173;28;94020;-63
2022/09/23 01:40:45;;;;;;;3.47;2.07;;;3.10;99.90;2.80;101065.00;;;;4987436;28;92548;-63
2022/09/23 01:43:46;;;;;;;2.10;1.93;;;3.10;99.90;2.70;101071.00;;;;4989969;28;92643;-63
2022/09/23 01:46:57;;;;;;;4.30;1.80;;;3.10;99.90;2.60;101062.00;;;;4970122;28;99595;-62
2022/09/23 01:49:43;;;;;;;2.27;1.60;;;3.00;99.90;2.60;101057.00;;;;4988807;28;106683;-63
2022/09/23 01:52:19;;;;;;;2.27;1.87;;;2.90;99.90;2.60;101058.00;;;;4978905;28;98643;-63
2022/09/23 01:55:00;;;;;;;1.50;1.40;;;2.80;99.90;2.50;101056.00;;;;4972013;28;91667;-63
2022/09/23 01:57:39;;;;;;;1.70;1.60;;;2.80;99.90;2.50;101053.00;;;;4939457;28;93429;-64
2022/09/23 02:00:12;;;;;;;3.03;1.97;;;2.70;99.90;2.50;101051.00;;;;4970319;28;115469;-63
2022/09/23 02:02:55;;;;;;;3.23;2.23;;;2.70;99.90;2.40;101052.00;;;;4962131;28;93723;-63
2022/09/23 02:05:32;;;;;;;1.73;1.63;;;2.80;99.90;2.50;101055.00;;;;4984604;28;91986;-64
2022/09/23 02:08:08;;;;;;;1.50;1.40;;;2.70;99.90;2.40;101046.00;;;;4973524;28;92814;-63
2022/09/23 02:10:42;;;;;;;2.03;1.80;;;2.80;99.90;2.40;101047.00;;;;4968269;28;94202;-63
2022/09/23 02:13:19;;;;;;;2.07;1.87;;;2.70;99.90;2.40;101051.00;;;;4970263;28;93403;-63
2022/09/23 02:15:50;;;;;;;1.87;1.70;;;2.70;99.90;2.40;101049.00;;;;4967724;28;92648;-63
2022/09/23 02:18:21;;;;;;;2.37;2.17;;;2.70;99.90;2.40;101038.00;;;;4970734;28;92220;-63
2022/09/23 02:20:52;;;;;;;3.07;2.10;;;2.70;99.90;2.30;101033.00;;;;4990034;28;93350;-63
2022/09/23 02:23:35;;;;;;;1.50;1.40;;;2.70;99.90;2.30;101036.00;;;;4969173;28;92521;-64
2022/09/23 02:26:06;;;;;;;3.90;1.50;;;2.60;99.90;2.30;101032.00;;;;4965211;28;97667;-63
2022/09/23 02:28:55;;;;;;;1.73;1.63;;;2.60;99.90;2.20;101030.00;;;;4986658;28;93710;-63
2022/09/23 02:31:40;;;;;;;2.17;1.93;;;2.50;99.90;2.20;101033.00;;;;4980018;28;93642;-63
2022/09/23 02:34:20;;;;;;;2.70;2.17;;;2.50;99.90;2.20;101026.00;;;;4971075;28;93192;-63
2022/09/23 02:37:05;;;;;;;2.20;2.00;;;2.50;99.90;2.10;101034.00;;;;4984134;28;92146;-63
2022/09/23 02:39:57;;;;;;;8.10;2.57;;;2.40;99.90;2.00;101021.00;;;;4968516;28;92469;-64
2022/09/23 02:42:35;;;;;;;2.93;2.67;;;2.30;99.90;2.00;101022.00;;;;4973297;28;93174;-63
2022/09/23 02:45:01;;;;;;;2.97;2.53;;;2.30;99.90;2.00;101020.00;;;;4969734;28;92818;-63
2022/09/23 02:47:30;;;;;;;3.23;2.70;;;2.30;99.90;1.90;101014.00;;;;4980426;28;91893;-63
2022/09/23 02:49:56;;;;;;;2.40;2.20;;;2.20;99.90;1.90;101005.00;;;;4965225;28;107791;-64
2022/09/23 02:52:23;;;;;;;4.80;3.77;;;2.30;99.90;1.90;101011.00;;;;4984981;28;122301;-64
2022/09/23 02:54:50;;;;;;;2.90;2.63;;;2.20;99.90;1.90;101000.00;;;;4968766;28;93393;-64
2022/09/23 02:57:16;;;;;;;2.90;2.27;;;2.20;99.90;1.90;101004.00;;;;4984213;28;100022;-64
2022/09/23 02:59:42;;;;;;;2.33;2.13;;;2.20;99.90;1.90;101002.00;;;;4982484;28;109117;-63
2022/09/23 03:02:38;;;;;;;2.80;2.20;;;2.10;99.90;1.80;101012.00;;;;4977327;28;94151;-63
2022/09/23 03:05:17;;;;;;;4.60;3.63;;;2.20;99.90;1.80;101007.00;;;;4981635;28;93349;-63
2022/09/23 03:08:08;;;;;;;5.67;4.03;;;2.10;99.90;1.80;101010.00;;;;4963684;28;92520;-63
2022/09/23 03:11:07;;;;;;;3.63;2.70;;;2.10;99.90;1.80;101010.00;;;;4964955;28;103676;-63
2022/09/23 03:14:15;;;;;;;5.77;3.17;;;2.10;99.90;1.70;101008.00;;;;4967345;28;93102;-63
2022/09/23 03:17:18;;;;;;;5.03;3.03;;;2.10;99.90;1.70;100999.00;;;;4988607;28;92931;-63
2022/09/23 03:20:00;;;;;;;2.40;1.90;;;2.10;99.90;1.70;100995.00;;;;4946199;28;92871;-64
2022/09/23 03:22:35;;;;;;;2.47;2.00;;;2.10;99.90;1.70;101004.00;;;;4954329;28;93683;-64
2022/09/23 03:25:14;;;;;;;3.83;2.30;;;2.00;99.90;1.70;100989.00;;;;4962169;28;115037;-63
2022/09/23 03:27:41;;;;;;;3.33;2.57;;;2.00;99.90;1.70;100992.00;;;;4960622;28;93416;-63
2022/09/23 03:30:08;;;;;;;7.77;2.70;;;2.00;99.90;1.70;100995.00;;;;4963894;28;92666;-63
2022/09/23 03:32:35;;;;;;;1.37;1.07;;;2.00;99.90;1.70;100992.00;;;;4968637;28;92141;-63
2022/09/23 03:35:04;;;;;;;2.73;2.50;;;2.00;99.90;1.70;100987.00;;;;4965774;28;118302;-64
2022/09/23 03:37:43;;;;;;;1.53;1.43;;;2.00;99.90;1.70;100989.00;;;;4966269;28;106817;-63
2022/09/23 03:40:16;;;;;;;1.70;1.40;;;2.00;99.90;1.70;100986.00;;;;4975647;28;91349;-63
2022/09/23 03:42:42;;;;;;;3.70;2.47;;;2.00;99.90;1.60;100977.00;;;;4959326;28;96459;-64
2022/09/23 03:45:17;;;;;;;3.27;1.90;;;1.90;99.90;1.60;100978.00;;;;4960302;28;92516;-64
2022/09/23 03:47:44;;;;;;;2.40;1.67;;;1.90;99.90;1.60;100984.00;;;;4966614;28;93597;-64
2022/09/23 03:50:12;;;;;;;2.83;1.90;;;1.80;99.90;1.60;100975.00;;;;4962557;28;101605;-64
2022/09/23 03:52:38;;;;;;;5.20;3.60;;;1.90;99.90;1.50;100973.00;;;;4966447;28;92610;-64
2022/09/23 03:55:06;;;;;;;2.47;2.23;;;1.80;99.90;1.50;100971.00;;;;4964284;28;93500;-64
2022/09/23 03:57:31;;;;;;;2.90;2.37;;;1.80;99.90;1.50;100975.00;;;;4953877;28;92626;-64
2022/09/23 03:59:57;;;;;;;2.17;1.80;;;1.80;99.90;1.50;100965.00;;;;4957551;28;110226;-64
2022/09/23 04:02:23;;;;;;;2.90;2.10;;;1.80;99.90;1.50;100966.00;;;;4960327;28;106220;-64
2022/09/23 04:04:49;;;;;;;2.80;2.40;;;1.70;99.90;1.40;100963.00;;;;4961819;28;92024;-63
2022/09/23 04:07:15;;;;;;;4.27;3.23;;;1.70;99.90;1.40;100965.00;;;;4961470;28;92664;-64
2022/09/23 04:09:41;;;;;;;4.00;2.87;;;1.70;99.90;1.40;100961.00;;;;4965616;28;108887;-64
2022/09/23 04:12:07;;;;;;;2.97;2.70;;;1.70;99.90;1.40;100958.00;;;;4968295;28;108698;-63
2022/09/23 04:14:32;;;;;;;4.17;2.40;;;1.60;99.90;1.40;100961.00;;;;4966060;28;92696;-64
2022/09/23 04:16:58;;;;;;;4.87;3.10;;;1.70;99.90;1.40;100972.00;;;;4971213;28;121452;-64
2022/09/23 04:19:24;;;;;;;3.83;2.40;;;1.70;99.90;1.30;100965.00;;;;4971295;28;110390;-64
2022/09/23 04:21:50;;;;;;;6.80;3.00;;;1.60;99.90;1.30;100956.00;;;;4983048;28;103707;-64
2022/09/23 04:24:16;;;;;;;2.87;2.57;;;1.70;99.90;1.30;100959.00;;;;4980556;28;121954;-64
2022/09/23 04:26:42;;;;;;;3.50;2.90;;;1.60;99.90;1.30;100959.00;;;;4984404;28;122881;-64
2022/09/23 04:29:10;;;;;;;4.93;4.07;;;1.60;99.90;1.20;100961.00;;;;4985569;28;91861;-63
2022/09/23 04:31:36;;;;;;;4.43;3.53;;;1.50;99.90;1.20;100957.00;;;;4987838;28;92553;-64
2022/09/23 04:34:02;;;;;;;3.50;3.20;;;1.50;99.90;1.20;100949.00;;;;4992083;28;112522;-64
2022/09/23 04:36:30;;;;;;;3.67;3.23;;;1.50;99.90;1.10;100946.00;;;;4989243;28;122216;-63
2022/09/23 04:38:56;;;;;;;2.97;2.77;;;1.50;99.90;1.10;100955.00;;;;4985260;28;92199;-63
2022/09/23 04:41:21;;;;;;;4.13;3.03;;;1.50;99.90;1.10;100953.00;;;;4985271;28;107740;-63
2022/09/23 04:43:47;;;;;;;3.10;2.77;;;1.40;99.90;1.10;100942.00;;;;4981688;28;123268;-63
2022/09/23 04:46:14;;;;;;;2.73;2.53;;;1.40;99.90;1.10;100945.00;;;;4985379;28;122131;-63
2022/09/23 04:48:40;;;;;;;3.23;2.60;;;1.40;99.90;1.00;100948.00;;;;4987894;28;92638;-63
2022/09/23 04:51:16;;;;;;;3.03;2.50;;;1.30;99.90;1.00;100946.00;;;;4988517;28;92654;-63
2022/09/23 04:53:44;;;;;;;3.70;2.53;;;1.40;99.90;1.00;100936.00;;;;4987068;28;93146;-64
2022/09/23 04:56:16;;;;;;;2.57;2.37;;;1.40;99.90;1.00;100937.00;;;;4989499;28;92703;-63
2022/09/23 04:58:43;;;;;;;3.10;2.20;;;1.30;99.90;1.00;100938.00;;;;4987370;28;92496;-64
2022/09/23 05:01:17;;;;;;;4.63;2.73;;;1.30;99.90;1.00;100939.00;;;;4981952;28;93398;-63
2022/09/23 05:03:45;;;;;;;7.43;3.33;;;1.30;99.90;1.00;100945.00;;;;4982662;28;93165;-64
2022/09/23 05:06:12;;;;;;;2.37;1.77;;;1.30;99.90;1.00;100950.00;;;;4950051;28;110243;-63
2022/09/23 05:08:40;;;;;;;5.13;2.17;;;1.30;99.90;0.90;100935.00;;;;4985453;28;92834;-64
2022/09/23 05:11:07;;;;;;;2.87;2.50;;;1.20;99.90;0.90;100938.00;;;;4990888;28;92660;-64
2022/09/23 05:13:34;;;;;;;2.23;1.40;;;1.20;99.90;0.90;100946.00;;;;4989056;28;94036;-63
2022/09/23 05:16:06;;;;;;;5.93;2.70;;;1.20;99.90;1.00;100949.00;;;;4989998;28;92336;-64
2022/09/23 05:18:39;;;;;;;4.70;2.93;;;1.30;99.90;1.00;100941.00;;;;4987028;28;91387;-64
2022/09/23 05:21:06;;;;;;;3.43;3.13;;;1.30;99.90;1.00;100939.00;;;;4983317;28;93108;-64
2022/09/23 05:23:32;;;;;;;2.60;2.27;;;1.40;99.90;1.10;100936.00;;;;4981754;28;99161;-64
2022/09/23 05:26:02;;;;;;;3.97;2.93;;;1.60;99.90;1.20;100949.00;;;;4984824;28;93438;-64
2022/09/23 05:28:31;;;;;;;10.07;3.60;;;1.40;99.90;1.20;100944.00;;;;4986932;28;92569;-64
2022/09/23 05:31:16;;;;;;;4.80;2.90;;;1.50;99.90;1.20;100948.00;;;;4990282;28;92606;-63
2022/09/23 05:33:45;;;;;;;6.03;3.20;;;1.60;99.90;1.30;100952.00;;;;4988813;28;93440;-64
2022/09/23 05:36:12;;;;;;;8.57;3.60;;;1.60;99.90;1.40;100950.00;;;;4986474;28;93324;-64
2022/09/23 05:38:38;;;;;;;4.80;2.27;;;1.70;99.90;1.50;100943.00;;;;4983429;28;92281;-64
2022/09/23 05:41:07;;;;;;;7.57;4.33;;;2.20;99.90;1.60;100954.00;;;;4981512;28;92588;-64
2022/09/23 05:43:34;;;;;;;3.60;3.30;;;1.90;99.90;1.70;100945.00;;;;4983365;28;92812;-64
2022/09/23 05:46:11;;;;;;;4.07;3.60;;;2.00;99.90;1.90;100945.00;;;;4986437;28;91947;-64
2022/09/23 05:48:38;;;;;;;4.80;2.73;;;2.10;99.90;2.00;100945.00;;;;4972477;28;93011;-64
2022/09/23 05:51:09;;;;;;;8.10;4.67;;;2.20;99.90;2.10;100947.00;;;;4990303;28;102550;-64
2022/09/23 05:53:35;;;;;;;4.83;3.20;;;2.30;99.90;2.30;100943.00;;;;4986779;28;92759;-64
2022/09/23 05:56:02;;;;;;;5.33;3.10;;;2.40;99.90;2.40;100942.00;;;;4985526;28;93253;-64
2022/09/23 05:58:27;;;;;;;4.30;3.10;;;2.60;99.90;2.60;100945.00;;;;4985939;28;92543;-64
2022/09/23 06:00:56;;;;;;;3.60;3.23;;;2.90;99.90;2.80;100946.00;;;;4982963;28;92526;-63
2022/09/23 06:03:23;;;;;;;4.37;2.50;;;2.90;99.90;3.00;100947.00;;;;4965272;28;92576;-63
2022/09/23 06:05:55;;;;;;;2.87;2.57;;;3.10;99.90;3.20;100950.00;;;;4985484;28;115417;-63
2022/09/23 06:08:21;;;;;;;4.13;2.30;;;3.30;99.90;3.40;100936.00;;;;4986556;28;91318;-64
2022/09/23 06:10:48;;;;;;;3.07;2.80;;;3.50;99.90;3.60;100953.00;;;;4991228;28;92588;-64
2022/09/23 06:13:17;;;;;;;4.13;3.13;;;3.70;99.90;3.90;100952.00;;;;4990026;28;93693;-64
2022/09/23 06:15:43;;;;;;;4.83;2.63;;;3.90;99.90;4.20;100959.00;;;;4984363;28;93606;-63
2022/09/23 06:18:10;;;;;;;3.70;3.27;;;4.20;99.90;4.50;100957.00;;;;4985541;28;92055;-63
2022/09/23 06:20:36;;;;;;;3.07;2.33;;;4.50;99.90;4.80;100957.00;;;;4981670;28;102081;-63
2022/09/23 06:23:04;;;;;;;4.13;3.03;;;4.80;99.90;5.00;100967.00;;;;4982929;28;92586;-63
2022/09/23 06:25:31;;;;;;;4.40;2.37;;;5.10;99.90;5.30;100965.00;;;;4985478;28;93659;-63
2022/09/23 06:27:57;;;;;;;4.23;3.00;;;5.70;99.90;5.60;100967.00;;;;4986120;28;102838;-63
2022/09/23 06:30:25;;;;;;;4.23;2.63;;;5.60;99.90;5.90;100967.00;;;;4990622;28;92593;-63
2022/09/23 06:32:53;;;;;;;5.00;4.50;;;6.20;99.90;6.30;100966.00;;;;4989344;28;93066;-64
2022/09/23 06:35:22;;;;;;;4.33;2.67;;;6.30;99.90;6.60;100963.00;;;;4984723;28;92147;-63
2022/09/23 06:37:48;;;;;;;5.47;3.73;;;6.60;99.90;7.00;100959.00;;;;4986016;28;92564;-63
2022/09/23 06:40:14;;;;;;;5.13;3.47;;;7.40;99.90;7.40;100962.00;;;;4978827;28;109736;-63
2022/09/23 06:42:43;;;;;;;6.53;4.97;;;7.40;99.90;7.70;100971.00;;;;4983606;28;93916;-62
2022/09/23 06:45:13;;;;;;;6.27;4.23;;;7.70;99.90;8.10;100967.00;;;;4982245;28;122367;-62
2022/09/23 06:47:40;;;;;;;5.03;4.20;;;8.10;99.90;8.40;100964.00;;;;4988906;28;92351;-62
2022/09/23 06:50:07;;;;;;;3.13;2.73;;;8.40;99.90;8.70;100966.00;;;;4990994;28;92653;-62
2022/09/23 06:52:33;;;;;;;3.47;2.70;;;8.70;99.90;9.10;100970.00;;;;4985319;28;93016;-62
2022/09/23 06:54:59;;;;;;;4.23;2.90;;;9.10;99.90;9.40;100969.00;;;;4985445;28;92703;-62
2022/09/23 06:57:29;;;;;;;3.07;2.73;;;9.30;99.90;9.70;100962.00;;;;4984797;28;91723;-62
2022/09/23 06:59:56;;;;;;;3.90;3.13;;;9.60;99.90;9.90;100961.00;;;;4979916;28;92542;-62
2022/09/23 07:02:22;;;;;;;2.60;2.40;;;9.90;99.90;10.20;100968.00;;;;4984372;28;93022;-62
2022/09/23 07:04:47;;;;;;;3.03;2.67;;;10.20;99.90;10.50;100963.00;;;;4984301;28;122425;-62
2022/09/23 07:07:15;;;;;;;4.33;2.87;;;10.40;99.90;10.80;100966.00;;;;4970126;28;108911;-62
2022/09/23 07:09:40;;;;;;;4.50;2.97;;;10.70;99.90;11.10;100973.00;;;;4971869;28;92562;-62
2022/09/23 07:12:07;;;;;;;3.70;2.33;;;11.00;99.90;11.40;100969.00;;;;4987446;28;120193;-62
2022/09/23 07:14:32;;;;;;;9.83;2.43;;;11.30;99.90;11.80;100968.00;;;;4980759;28;93395;-62
2022/09/23 07:16:58;;;;;;;3.70;2.63;;;11.60;99.90;12.10;100975.00;;;;4981810;28;93084;-62
2022/09/23 07:19:25;;;;;;;3.53;1.90;;;12.00;99.90;12.40;100972.00;;;;4981609;28;92796;-63
2022/09/23 07:21:50;;;;;;;2.53;2.00;;;12.30;99.90;12.80;100974.00;;;;4964922;28;92054;-62
2022/09/23 07:24:16;;;;;;;2.03;1.90;;;12.70;99.90;13.10;100973.00;;;;4987091;28;92776;-62
2022/09/23 07:26:42;;;;;;;2.73;1.97;;;13.00;99.90;13.30;100975.00;;;;4989094;28;92051;-62
2022/09/23 07:29:12;;;;;;;2.63;2.23;;;13.20;99.90;13.50;100978.00;;;;4988740;28;99692;-62
2022/09/23 07:31:38;;;;;;;2.00;1.77;;;13.40;99.90;13.70;100974.00;;;;4988107;28;96950;-61
2022/09/23 07:34:05;;;;;;;2.33;1.63;;;13.60;99.90;13.80;100983.00;;;;4984568;28;93503;-61
2022/09/23 07:36:31;;;;;;;1.77;1.67;;;13.70;99.90;13.90;100982.00;;;;4982147;28;102865;-60
2022/09/23 07:39:02;;;;;;;3.27;1.40;;;13.80;99.90;13.90;100972.00;;;;4982084;28;92913;-61
2022/09/23 07:41:30;;;;;;;1.60;1.50;;;13.90;99.90;14.00;100973.00;;;;4983497;28;93637;-62
2022/09/23 07:43:59;;;;;;;2.20;1.47;;;14.10;99.90;14.20;100972.00;;;;4981398;28;93542;-61
2022/09/23 07:46:30;;;;;;;1.70;1.53;;;14.20;99.90;14.50;100982.00;;;;4990019;28;91786;-61
2022/09/23 07:48:56;;;;;;;1.73;1.40;;;14.40;99.90;14.80;100978.00;;;;4989208;28;92528;-60
2022/09/23 07:51:26;;;;;;;2.13;1.57;;;14.70;99.90;15.00;100985.00;;;;4984486;28;92566;-60
2022/09/23 07:53:54;;;;;;;1.73;1.63;;;15.00;99.90;15.20;100985.00;;;;4968489;28;94259;-61
2022/09/23 07:56:24;;;;;;;1.30;1.20;;;15.10;99.90;15.30;100989.00;;;;4981151;28;92530;-61
2022/09/23 07:58:58;;;;;;;4.73;1.63;;;15.20;99.90;15.50;100991.00;;;;4982097;28;92903;-61
2022/09/23 08:01:31;;;;;;;1.67;1.42;;;15.40;99.90;15.80;100990.00;;;;4984766;28;92436;-61
2022/09/23 08:03:59;;;;;;;1.57;1.47;;;15.60;99.90;16.00;100990.00;;;;4983577;28;92826;-61
2022/09/23 08:06:25;;;;;;;0.65;0.65;;;15.90;99.90;16.30;100991.00;;;;4989425;28;92505;-61
2022/09/23 08:08:51;;;;;;;2.37;1.53;;;16.30;99.90;16.50;100990.00;;;;4986417;28;92670;-61
2022/09/23 08:11:17;;;;;;;1.67;1.58;;;16.40;99.90;16.80;100988.00;;;;4986464;28;91156;-60
2022/09/23 08:13:43;;;;;;;1.63;1.08;;;16.70;99.50;16.90;100987.00;;;;4982200;28;109853;-60
2022/09/23 08:16:10;;;;;;;1.90;1.30;;;16.80;98.10;17.00;100991.00;;;;4965451;28;91987;-61
2022/09/23 08:18:35;;;;;;;1.02;0.93;;;17.00;96.40;17.00;100991.00;;;;4981156;28;93463;-61
2022/09/23 08:21:02;;;;;;;2.25;1.15;;;17.00;96.40;17.20;100985.00;;;;4982998;28;93727;-60
2022/09/23 08:23:32;;;;;;;1.67;1.38;;;17.10;95.80;17.40;100991.00;;;;4984512;28;93206;-61
2022/09/23 08:26:00;;;;;;;1.40;0.98;;;17.30;95.40;17.60;100990.00;;;;4985289;28;92743;-60
2022/09/23 08:28:27;;;;;;;1.63;1.00;;;17.50;94.50;17.70;100993.00;;;;4987965;28;92304;-61
2022/09/23 08:30:53;;;;;;;1.40;0.82;;;17.60;94.10;17.80;100995.00;;;;4985170;28;94080;-59
2022/09/23 08:33:18;;;;;;;0.85;0.68;;;17.70;93.30;18.00;100990.00;;;;4981538;28;115691;-61
2022/09/23 08:35:44;;;;;;;0.85;0.80;;;17.90;93.40;18.20;100986.00;;;;4980782;28;91795;-61
2022/09/23 08:38:10;;;;;;;0.73;0.73;;;18.10;92.90;18.50;100985.00;;;;4980044;28;107627;-61
2022/09/23 08:40:41;;;;;;;1.17;0.88;;;18.40;92.30;18.70;100984.00;;;;4981388;28;122844;-61
2022/09/23 08:43:16;;;;;;;1.35;1.02;;;18.60;90.90;18.90;100982.00;;;;4981803;28;93479;-60
2022/09/23 08:45:43;;;;;;;4.63;1.17;;;18.80;90.30;19.10;100984.00;;;;4970000;28;92552;-61
2022/09/23 08:48:14;;;;;;;0.60;0.60;;;19.00;89.10;19.10;100983.00;;;;4988044;28;92549;-61
2022/09/23 08:50:57;;;;;;;0.80;0.80;;;19.10;86.20;19.30;100976.00;;;;4968573;28;93754;-61
2022/09/23 08:53:26;;;;;;;1.13;0.75;;;19.30;85.90;19.60;100969.00;;;;4962213;28;93361;-61
2022/09/23 08:55:57;;;;;;;0.90;0.80;;;19.40;83.80;19.60;100970.00;;;;4982579;28;92744;-61
2022/09/23 08:58:47;;;;;;;0.82;0.77;;;19.50;80.60;19.70;100965.00;;;;4980863;28;91915;-61
2022/09/23 09:01:44;;;;;;;1.58;1.00;;;19.70;80.10;19.80;100965.00;;;;4987431;28;92845;-61
2022/09/23 09:04:39;;;;;;;0.75;0.75;;;19.70;79.50;20.00;100975.00;;;;4972393;28;92374;-61
2022/09/23 09:07:08;;;;;;;0.70;0.70;;;19.90;78.20;20.20;100981.00;;;;4970772;28;92643;-61
2022/09/23 09:09:44;;;;;;;1.10;1.00;;;20.10;77.70;20.40;100970.00;;;;4984316;28;93447;-61
2022/09/23 09:12:24;;;;;;;1.25;0.88;;;20.20;76.10;20.70;100974.00;;;;4971943;28;93634;-61
2022/09/23 09:15:17;;;;;;;1.02;0.68;;;20.50;75.40;21.10;100966.00;;;;4962972;28;114316;-61
2022/09/23 09:17:55;;;;;;;1.42;0.80;;;20.80;75.00;21.30;100973.00;;;;4986864;28;92016;-61
2022/09/23 09:20:54;;;;;;;1.40;0.70;;;21.00;70.10;21.10;100966.00;;;;4973704;28;92083;-61
2022/09/23 09:23:21;;;;;;;0.73;0.57;;;21.00;66.10;21.10;100967.00;;;;4987004;28;92684;-61
2022/09/23 09:25:48;;;;;;;1.23;0.73;;;21.00;66.50;21.30;100964.00;;;;4972703;28;93749;-60
2022/09/23 09:28:26;;;;;;;1.02;0.68;;;21.10;65.50;21.30;100962.00;;;;4969563;28;91271;-61
2022/09/23 09:31:01;;;;;;;0.77;0.57;;;21.20;64.00;21.60;100962.00;;;;4969238;28;92369;-61
2022/09/23 09:33:37;;;;;;;1.15;0.50;;;21.30;62.90;21.80;100957.00;;;;4986891;28;92832;-60
2022/09/23 09:36:42;;;;;;;0.60;0.60;;;21.50;63.70;22.30;100950.00;;;;4972038;28;115429;-61
2022/09/23 09:39:13;;;;;;;0.73;0.60;;;22.00;62.10;22.60;100957.00;;;;4985863;28;92015;-61
2022/09/23 09:41:44;;;;;;;2.13;0.70;;;22.30;58.70;22.80;100965.00;;;;4974592;28;92172;-61
2022/09/23 09:44:25;;;;;;;0.50;0.50;;;22.40;56.50;22.90;100948.00;;;;4973063;28;93052;-60
2022/09/23 09:47:07;;;;;;;0.65;0.50;;;22.50;56.10;23.00;100956.00;;;;4989024;28;93291;-62
2022/09/23 09:50:04;;;;;;;0.80;0.55;;;22.70;54.60;23.10;100943.00;;;;4985049;28;92426;-62
2022/09/23 09:52:30;;;;;;;0.82;0.63;;;22.70;52.60;23.00;100932.00;;;;4970419;28;92100;-61
2022/09/23 09:55:24;;;;;;;0.98;0.68;;;22.70;52.40;22.90;100933.00;;;;4988250;28;91921;-61
2022/09/23 09:58:04;;;;;;;0.52;0.50;;;22.60;51.00;22.80;100925.00;;;;4969107;28;92315;-62
2022/09/23 10:00:30;;;;;;;0.47;0.47;;;22.50;50.90;22.60;100922.00;;;;4989797;28;92431;-61
2022/09/23 10:03:12;;;;;;;1.55;0.68;;;22.40;51.00;22.60;100928.00;;;;4973796;28;92984;-61
2022/09/23 10:05:44;;;;;;;0.28;0.28;;;22.30;51.20;22.60;100931.00;;;;4984955;28;92572;-62
2022/09/23 10:08:28;;;;;;;0.82;0.70;;;22.30;51.60;22.70;100921.00;;;;4984962;28;113263;-62
2022/09/23 10:11:03;;;;;;;0.32;0.30;;;22.40;51.00;22.70;100923.00;;;;4982130;28;102000;-62
2022/09/23 10:13:30;;;;;;;1.60;0.40;;;22.40;48.10;22.40;100917.00;;;;4983194;28;95172;-62
2022/09/23 10:15:58;;;;;;;0.75;0.50;;;22.20;48.20;22.30;100913.00;;;;4978224;28;93290;-61
2022/09/23 10:18:36;;;;;;;0.50;0.50;;;22.00;49.40;22.40;100916.00;;;;4976419;28;93399;-62
2022/09/23 10:21:09;;;;;;;0.40;0.30;;;22.00;50.80;22.80;100919.00;;;;4987946;28;91253;-61
2022/09/23 10:23:50;;;;;;;0.35;0.32;;;22.30;51.50;23.20;100924.00;;;;4984572;28;92517;-61
2022/09/23 10:26:17;;;;;;;0.50;0.38;;;22.60;51.20;23.60;100920.00;;;;4988002;28;92446;-62
2022/09/23 10:28:58;;;;;;;2.25;0.60;;;23.00;51.10;23.90;100913.00;;;;4965514;28;93141;-62
2022/09/23 10:31:33;;;;;;;0.60;0.47;;;23.30;50.20;24.00;100916.00;;;;4981975;28;92474;-60
2022/09/23 10:34:26;;;;;;;0.57;0.57;;;23.50;49.60;24.20;100914.00;;;;4979820;28;92639;-61
2022/09/23 10:37:04;;;;;;;1.20;0.60;;;23.70;49.20;24.20;100911.00;;;;4963915;28;94527;-62
2022/09/23 10:48:59;;;;;;;1.35;0.80;;;24.80;48.30;25.70;100898.00;;;;4986097;28;92244;-62
2022/09/23 10:52:02;;;;;;;0.60;0.50;;;25.10;48.10;26.10;100903.00;;;;4979382;28;92705;-61
2022/09/23 10:54:45;;;;;;;0.55;0.50;;;25.50;47.20;26.30;100900.00;;;;4960912;28;92571;-61
2022/09/23 10:57:44;;;;;;;0.55;0.35;;;25.70;46.80;26.40;100901.00;;;;4975211;28;92944;-61
2022/09/23 11:00:27;;;;;;;1.10;0.80;;;25.80;45.40;26.40;100893.00;;;;4989383;28;92411;-62
2022/09/23 11:03:24;;;;;;;0.50;0.50;;;25.90;45.00;26.20;100891.00;;;;4983403;28;115265;-62
2022/09/23 11:06:20;;;;;;;0.57;0.57;;;25.70;44.00;26.00;100887.00;;;;4985888;28;92467;-60
2022/09/23 11:09:29;;;;;;;1.15;0.60;;;25.60;42.40;25.70;100885.00;;;;4982407;28;92024;-62
2022/09/23 11:12:12;;;;;;;0.73;0.60;;;25.30;43.20;25.50;100882.00;;;;4955602;28;95433;-61
2022/09/23 11:15:08;;;;;;;0.55;0.55;;;25.20;43.80;25.70;100879.00;;;;4986369;28;93011;-61
2022/09/23 11:18:12;;;;;;;0.90;0.70;;;25.20;44.60;25.80;100880.00;;;;4970627;28;91390;-61
2022/09/23 11:21:19;;;;;;;1.33;0.70;;;25.30;43.60;26.00;100885.00;;;;4972160;28;103132;-62
2022/09/23 11:24:20;;;;;;;0.70;0.38;;;25.50;43.30;26.10;100886.00;;;;4972015;28;93433;-61
2022/09/23 11:27:07;;;;;;;1.17;0.70;;;25.60;41.10;26.00;100876.00;;;;4963712;28;114822;-62
2022/09/23 11:30:08;;;;;;;1.35;0.73;;;25.60;42.00;25.90;100872.00;;;;4972020;28;92457;-62
2022/09/23 11:33:12;;;;;;;0.38;0.38;;;25.50;40.50;25.90;100864.00;;;;4969665;28;92610;-61